KCHA METAR and TAF | Updated Today

KCHA METAR

Lovell Field

Observation time: 62 min. ago

KCHA 010653Z AUTO 31003KT 10SM CLR 13/05 A2990 RMK AO2 SLP119 T01280050

Need help? Read our tutorial on how to read METARs or read the parsed version below.

Lovell Field (KCHA) METAR

  • Weather conditions on Sat, 01 Oct 2022 06:53:00 +0000 (62 min. ago):
  • Present conditions: Dry
  • Clouds: Clear skies
  • Visibility: 16093 meters
  • Wind: 310 degrees at 3 knots
  • Temperature: 13 celsius
  • Dew point: 5 celsius
  • Pressure: 29.9 inHg
  • Remarks: AO2 SLP119 T01280050


Useful to know...

KCHA TAF

Lovell Field

KCHA 010520Z 0106/0206 01008KT P6SM SCT250 FM011900 35010G21KT P6SM FEW190 FM020100 36006KT P6SM FEW130
Observation time: 2:35 hr. ago
Need help? Read our tutorial on how to read TAFs or read the parsed version below.

Parsed version of TAF for Lovell Field (KCHA)

  • From 01 October at 06:00 UTC, to day 02 of the month at 06:00 UTC
  • Clouds: Scattered at 7620 meters
  • Wind: 10 degrees at 8
  • From day 1 of the month at 19:00 UTC
  • Clouds: A few at 5791 meters
  • Wind: 350 degrees at 10
  • From day 2 of the month at 01:00 UTC
  • Clouds: A few at 3962 meters
  • Wind: 360 degrees at 6

Airports near KCHA

KDNN Weather
Region: Dalton

Dalton Municipal Airport

Not found in our database
KMMI Weather
Region: Athens

McMinn County Airport

Not found in our database
KRMG Weather
IATA: RMG
Region: Rome

Richard B Russell Airport

Found in our database